Vliegveldwaarnemingen Nederland - (AUTO) METAR

Luchtvaartmeteorologische informatie voor operationeel gebruik en vluchtvoorbereiding is beschikbaar op www.luchtvaartmeteo.nl.

ZCZC
SA261855 EHKD     DE KOOY/DE KOOY   NLD   1 m.
METAR EHKD 261855Z AUTO 24015KT 210V270 9999 FEW012 OVC025 07/05
Q1026 BLU=

ZCZC
SA261855 EHFD     F3-FB-1   NLD   50 m.
METAR EHFD 261855Z AUTO 25031KT 9999 // FEW007/// SCT008/// BKN010///
07/05 Q1020 RE//=

ZCZC
SA261855 EHAM     AMSTERDAM/SCHIPHOL   NLD   -3 m.
METAR EHAM 261855Z 22011KT 9999 FEW012 BKN025 06/04 Q1029 NOSIG=

ZCZC
SA261855 EHVL     VLIELAND   NLD   10 m.
METAR EHVL 261855Z AUTO 25022KT 9000 BR SCT012 OVC018 07/05 Q1026 GRN=

ZCZC
SA261855 EHJR     K13-A   NLD   37 m.
METAR EHJR 261855Z AUTO 23027KT //// // ///////// 07/05 Q//// RE//
W///H15=

ZCZC
SA261855 EHLE     LELYSTAD/LELYSTAD   NLD   -3 m.
METAR EHLE 261855Z AUTO 22010KT 190V260 6000 BR SCT010 BKN015 BKN019
05/03 Q1028=

ZCZC
SA261855 EHLW     LEEUWARDEN/LEEUWARDEN   NLD   1 m.
METAR EHLW 261855Z AUTO 24013KT 9999 // FEW009 OVC014 06/05 Q1026 GRN=

ZCZC
SA261855 EHDL     ARNHEM/DEELEN   NLD   48 m.
METAR EHDL 261855Z AUTO 23011KT 170V270 4600 BR BKN008 OVC009 04/02
Q1029 GRN=

ZCZC
SA261855 EHGG     GRONINGEN/EELDE   NLD   5 m.
METAR EHGG 261855Z AUTO 24011KT 6000 FEW009 SCT013 OVC016 06/04 Q1026
TEMPO BKN012=

ZCZC
SA261855 EHSC     LICHTEILAND GOEREE   NLD   22 m.
METAR EHSC 261855Z AUTO 25018KT 9999 ///////// 06/02 Q1029 W07/H9=

ZCZC
SA261855 EHSA     EURO PLATFORM   NLD   19 m.
METAR EHSA 261855Z AUTO 23021KT 9999 ///////// 07/03 Q1030 W08/H10=

ZCZC
SA261855 EHWO     WOENSDRECHT/WOENSDRECHT   NLD   19 m.
METAR EHWO 261855Z AUTO 22010KT 190V250 7000 BR OVC018 04/02 Q1030 WHT=

ZCZC
SA261855 EHRD     ROTTERDAM/THE HAGUE AIRPORT   NLD   -5 m.
METAR EHRD 261855Z AUTO 22010KT 9000 OVC022 05/03 Q1029 NOSIG=

ZCZC
SA261855 EHGR     GILZE-RIJEN/GILZE-RIJEN   NLD   14 m.
METAR EHGR 261855Z AUTO 21007KT 170V260 5000 BR SCT014 OVC016 03/01
Q1030
GRN TEMPO 4500 BR FEW012 OVC015=

ZCZC
SA261855 EHEH     EINDHOVEN/EINDHOVEN   NLD   22 m.
METAR EHEH 261855Z AUTO 21010KT 5000 BR FEW009 OVC015 03/01 Q1031
WHT TEMPO SCT009 BKN012=

ZCZC
SA261855 EHVK     VOLKEL/VOLKEL   NLD   21 m.
METAR EHVK 261855Z AUTO 22010KT 4900 BR FEW010 OVC015 03/02 Q1030 GRN=

ZCZC
SA261855 EHBK     MAASTRICHT/MAASTRICHT-AACHEN   NLD   114 m.
METAR EHBK 261855Z AUTO 22009KT 6000 FEW009 OVC016 02/M00 Q1031
NOSIG=

ZCZC
SA261855 EHKV     K14-FA-1C   NLD   41 m.
METAR EHKV 261855Z AUTO 25026KT 9999 BKN020 OVC024 07/05 Q1025=

ZCZC
SA261855 EHMG     L9-FF-1   NLD   44 m.
METAR EHMG 261855Z AUTO 24026KT 8000 BKN006 OVC007 07/05 Q1025=

ZCZC
SA261855 EHMA     AWG-1   NLD   40 m.
METAR EHMA 261855Z AUTO 24018KT 8000 FEW007 SCT008 BKN010 06/04
Q1025=

ZCZC
SA261855 EHDV     D15-FA-1   NLD   42 m.
METAR EHDV 261855Z AUTO 25024KT 9999 FEW019/// 08/06 Q1022=

ZCZC
SA261855 EHAK     A12-CPP   NLD   48 m.
METAR EHAK 261855Z AUTO 23032KT 180V250 9999 FEW005/// 07/06 Q1018=

ZCZC
SA261855 EHQE     HOORN-A   NLD   50 m.
METAR EHQE 261855Z AUTO 25020KT 9999 FEW028 08/05 Q1026=

ZCZC
SA261855 EHJA     J6-A   NLD   45 m.
METAR EHJA 261855Z AUTO 23029KT 9999 BKN019/// OVC023/// 08/05 Q1024=

ZCZC
SA261855 EHPG     P11-B   NLD   41 m.
METAR EHPG 261855Z AUTO 24027KT 9999 FEW014 BKN028 07/04 Q1028=

ZCZC
SA261855 EHHW     BUITENGAATS/BG-OHVS2      42 m.
METAR EHHW 261855Z AUTO 24021KT 9999 FEW007/// SCT009/// BKN011///
07/05 Q1023=

ZCZC
SA261855 EHFS     VLISSINGEN AWS   NLD   8 m.
METAR EHFS 261855Z AUTO 22015KT 9999 OVC018/// 06/03 Q1030=

ZCZC
SA261855 EHSG     BSA   NLD   43 m.
METAR EHSG 261855Z AUTO 23016KT 180V250 9999 OVC017/// 06/02 Q1030=

26/01/2022 20.15 uur LT